Time;durP1;ratioP1;P1;durP2;ratioP2;P2;SDS_P1;SDS_P2;PMS_P1;PMS_P2;Temp;Humidity;BMP_temperature;BMP_pressure;BME280_temperature;BME280_humidity;BME280_pressure;Samples;Min_cycle;Max_cycle;Signal;HPM_P1;HPM_P2
2021/03/23 00:02:14;;;;;;;7.47;2.40;;;5.40;84.70;;;;;;5074353;28;20049;-41
2021/03/23 00:04:39;;;;;;;5.88;2.42;;;5.40;85.50;;;;;;5074917;28;20401;-41
2021/03/23 00:07:05;;;;;;;5.82;2.63;;;5.40;85.40;;;;;;5074302;28;20021;-41
2021/03/23 00:09:30;;;;;;;5.25;2.78;;;5.40;85.80;;;;;;5074510;28;20786;-42
2021/03/23 00:11:56;;;;;;;3.95;2.30;;;5.40;87.20;;;;;;5073312;28;20173;-41
2021/03/23 00:14:22;;;;;;;9.57;2.47;;;5.40;86.40;;;;;;5074282;28;20399;-42
2021/03/23 00:16:47;;;;;;;7.07;3.47;;;5.40;87.80;;;;;;5074379;28;20021;-43
2021/03/23 00:19:15;;;;;;;8.38;2.72;;;5.40;87.70;;;;;;5074207;28;20035;-39
2021/03/23 00:21:41;;;;;;;4.88;2.35;;;5.40;88.20;;;;;;5074305;28;20032;-41
2021/03/23 00:24:07;;;;;;;9.00;2.92;;;5.50;88.30;;;;;;5074056;28;20063;-45
2021/03/23 00:26:33;;;;;;;5.43;2.60;;;5.50;90.10;;;;;;5073312;28;20396;-43
2021/03/23 00:28:59;;;;;;;8.23;2.78;;;5.60;89.80;;;;;;5073987;28;20040;-43
2021/03/23 00:31:28;;;;;;;7.07;2.70;;;5.60;90.60;;;;;;5073965;28;20062;-41
2021/03/23 00:33:54;;;;;;;6.03;2.63;;;5.60;91.00;;;;;;5073854;28;20072;-41
2021/03/23 00:36:24;;;;;;;5.50;2.58;;;5.70;90.70;;;;;;5074128;28;20515;-40
2021/03/23 00:38:52;;;;;;;5.88;2.03;;;5.70;91.40;;;;;;5073708;28;20025;-43
2021/03/23 00:41:18;;;;;;;6.47;2.70;;;5.70;91.80;;;;;;5072473;28;20028;-43
2021/03/23 00:43:43;;;;;;;8.82;2.33;;;5.70;92.40;;;;;;5073569;28;20055;-41
2021/03/23 00:46:09;;;;;;;6.68;2.60;;;5.80;92.80;;;;;;5073773;28;20024;-41
2021/03/23 00:48:35;;;;;;;7.80;2.80;;;5.70;93.90;;;;;;5073802;28;20036;-40
2021/03/23 00:51:01;;;;;;;6.63;3.35;;;5.70;94.20;;;;;;5080449;28;20390;-43
2021/03/23 00:53:27;;;;;;;7.95;2.75;;;5.70;94.20;;;;;;5078851;28;20487;-41
2021/03/23 00:55:52;;;;;;;8.63;2.92;;;5.70;94.90;;;;;;5072709;28;20063;-40
2021/03/23 00:58:18;;;;;;;7.20;3.13;;;5.70;95.70;;;;;;5073468;28;20421;-39
2021/03/23 01:00:44;;;;;;;4.93;2.33;;;5.70;95.90;;;;;;5073497;28;20046;-44
2021/03/23 01:03:09;;;;;;;4.85;2.72;;;5.70;96.80;;;;;;5073271;28;20056;-44
2021/03/23 01:05:36;;;;;;;4.78;2.80;;;5.70;97.10;;;;;;5073697;28;20024;-41
2021/03/23 01:08:05;;;;;;;4.70;2.38;;;5.70;97.70;;;;;;5073234;28;20032;-44
2021/03/23 01:10:32;;;;;;;5.40;2.28;;;5.70;99.10;;;;;;5072505;28;20024;-42
2021/03/23 01:12:59;;;;;;;7.57;2.30;;;5.70;99.10;;;;;;5073125;28;20016;-40
2021/03/23 01:15:28;;;;;;;10.13;2.40;;;5.70;99.90;;;;;;5073423;28;20036;-41
2021/03/23 01:17:54;;;;;;;10.02;3.03;;;5.70;99.90;;;;;;5073159;28;20442;-46
2021/03/23 01:20:22;;;;;;;4.97;2.13;;;5.70;99.90;;;;;;5073318;28;20414;-42
2021/03/23 01:22:47;;;;;;;7.28;2.10;;;5.70;99.90;;;;;;5073664;28;20074;-42
2021/03/23 01:25:14;;;;;;;6.72;2.65;;;5.80;99.90;;;;;;5073116;28;20028;-43
2021/03/23 01:27:40;;;;;;;5.93;2.40;;;5.70;99.90;;;;;;5073946;28;20060;-43
2021/03/23 01:30:07;;;;;;;7.85;2.65;;;5.80;99.90;;;;;;5073805;28;20064;-39
2021/03/23 01:32:32;;;;;;;6.63;2.42;;;5.80;99.90;;;;;;5073655;28;20032;-42
2021/03/23 01:34:58;;;;;;;5.45;2.30;;;5.80;99.90;;;;;;5073726;28;20024;-41
2021/03/23 01:37:24;;;;;;;3.47;2.30;;;5.80;99.90;;;;;;5073636;28;20040;-42
2021/03/23 01:39:49;;;;;;;10.18;2.90;;;5.80;99.90;;;;;;5073273;28;20506;-44
2021/03/23 01:42:17;;;;;;;4.53;2.42;;;5.90;99.90;;;;;;5073074;28;20032;-42
2021/03/23 01:44:45;;;;;;;5.63;2.33;;;5.80;99.90;;;;;;5073389;28;20091;-39
2021/03/23 01:47:11;;;;;;;5.28;2.58;;;5.90;99.90;;;;;;5073358;28;20031;-41
2021/03/23 01:49:43;;;;;;;4.65;2.58;;;5.90;99.90;;;;;;5072193;28;20020;-41
2021/03/23 01:52:13;;;;;;;4.03;2.20;;;5.90;99.90;;;;;;5089929;28;20409;-41
2021/03/23 01:54:58;;;;;;;6.30;2.53;;;5.90;99.90;;;;;;5092817;28;20118;-41
2021/03/23 01:57:24;;;;;;;5.50;2.00;;;5.90;99.90;;;;;;5093614;28;20020;-41
2021/03/23 01:59:54;;;;;;;5.53;2.70;;;5.90;99.90;;;;;;5093510;28;20039;-39
2021/03/23 02:02:23;;;;;;;4.25;2.28;;;5.90;99.90;;;;;;5093330;28;20028;-39
2021/03/23 02:04:49;;;;;;;3.42;2.03;;;5.90;99.90;;;;;;5093262;28;20574;-43
2021/03/23 02:07:14;;;;;;;7.63;2.83;;;5.90;99.90;;;;;;5093392;28;20103;-44
2021/03/23 02:09:40;;;;;;;4.68;2.63;;;5.90;99.90;;;;;;5093230;28;20028;-41
2021/03/23 02:12:12;;;;;;;6.15;2.78;;;5.90;99.90;;;;;;5091417;28;20024;-41
2021/03/23 02:14:42;;;;;;;7.78;2.65;;;5.80;99.90;;;;;;5093216;28;20024;-39
2021/03/23 02:17:27;;;;;;;3.85;2.40;;;5.90;99.90;;;;;;5092932;28;20038;-44
2021/03/23 02:19:58;;;;;;;4.30;1.80;;;5.90;99.90;;;;;;5093197;28;20028;-42
2021/03/23 02:22:25;;;;;;;3.65;2.63;;;5.90;99.90;;;;;;5093139;28;20051;-42
2021/03/23 02:24:51;;;;;;;5.18;2.50;;;5.90;99.90;;;;;;5092510;28;20047;-41
2021/03/23 02:27:17;;;;;;;5.43;2.55;;;5.90;99.90;;;;;;5092782;28;20096;-40
2021/03/23 02:29:44;;;;;;;5.45;2.17;;;5.90;99.90;;;;;;5092734;28;20149;-42
2021/03/23 02:32:10;;;;;;;5.32;2.10;;;5.90;99.90;;;;;;5092868;28;20024;-44
2021/03/23 02:34:36;;;;;;;6.20;2.15;;;5.90;99.90;;;;;;5093023;28;20026;-41
2021/03/23 02:37:02;;;;;;;4.93;2.33;;;5.90;99.90;;;;;;5093099;28;20028;-40
2021/03/23 02:39:30;;;;;;;5.85;2.53;;;5.90;99.90;;;;;;5092876;28;20099;-42
2021/03/23 02:41:57;;;;;;;3.45;2.00;;;5.90;99.90;;;;;;5092133;28;20051;-43
2021/03/23 02:44:24;;;;;;;7.32;2.70;;;5.90;99.90;;;;;;5092416;28;20048;-41
2021/03/23 02:46:50;;;;;;;5.43;1.90;;;5.90;99.90;;;;;;5092980;28;20463;-46
2021/03/23 02:49:16;;;;;;;5.88;2.00;;;5.90;99.90;;;;;;5092603;28;20030;-46
2021/03/23 02:51:41;;;;;;;5.35;2.05;;;5.90;99.90;;;;;;5092666;28;20035;-46
2021/03/23 02:54:08;;;;;;;3.25;2.25;;;5.90;99.90;;;;;;5092724;28;20047;-41
2021/03/23 02:56:33;;;;;;;2.75;2.08;;;5.80;99.90;;;;;;5091862;28;20031;-41
2021/03/23 02:58:59;;;;;;;4.75;2.08;;;5.90;99.90;;;;;;5092505;28;20385;-47
2021/03/23 03:01:25;;;;;;;2.63;2.35;;;5.90;99.90;;;;;;5092697;28;20099;-41
2021/03/23 03:03:50;;;;;;;3.53;1.90;;;5.90;99.90;;;;;;5091265;28;20463;-41
2021/03/23 03:06:17;;;;;;;3.45;2.17;;;5.90;99.90;;;;;;5096603;28;20040;-44
2021/03/23 03:08:42;;;;;;;4.80;2.53;;;5.90;99.90;;;;;;5096884;28;20024;-45
2021/03/23 03:11:08;;;;;;;3.17;1.85;;;5.90;99.90;;;;;;5095853;28;20047;-41
2021/03/23 03:13:35;;;;;;;5.78;2.72;;;5.90;99.90;;;;;;5096683;28;20066;-42
2021/03/23 03:16:01;;;;;;;3.47;2.03;;;5.90;99.90;;;;;;5096700;28;20032;-41
2021/03/23 03:18:27;;;;;;;3.83;2.00;;;5.90;99.90;;;;;;5096476;28;20022;-41
2021/03/23 03:20:55;;;;;;;7.07;2.63;;;5.90;99.90;;;;;;5096677;28;20319;-39
2021/03/23 03:23:21;;;;;;;2.92;2.38;;;5.90;99.90;;;;;;5096445;28;20024;-40
2021/03/23 03:25:47;;;;;;;6.18;2.33;;;5.90;99.90;;;;;;5095908;28;20077;-41
2021/03/23 03:28:13;;;;;;;4.93;2.40;;;5.90;99.90;;;;;;5096421;28;20021;-45
2021/03/23 03:30:39;;;;;;;4.75;2.13;;;5.80;99.90;;;;;;5096228;28;20031;-41
2021/03/23 03:33:07;;;;;;;4.72;2.30;;;5.80;99.90;;;;;;5096392;28;20028;-42
2021/03/23 03:35:36;;;;;;;5.45;2.47;;;5.70;99.90;;;;;;5096172;28;20020;-44
2021/03/23 03:38:03;;;;;;;4.68;2.22;;;5.70;99.90;;;;;;5096346;28;20016;-41
2021/03/23 03:40:58;;;;;;;4.03;2.63;;;5.70;99.90;;;;;;5095039;28;20032;-42
2021/03/23 03:43:27;;;;;;;5.22;2.22;;;5.70;99.90;;;;;;5086937;28;20040;-45
2021/03/23 03:45:53;;;;;;;3.05;2.00;;;5.60;99.90;;;;;;5096139;28;20523;-44
2021/03/23 03:48:20;;;;;;;3.17;2.20;;;5.60;99.90;;;;;;5096038;28;20031;-41
2021/03/23 03:50:46;;;;;;;2.50;2.10;;;5.60;99.90;;;;;;5095706;28;20032;-43
2021/03/23 03:53:13;;;;;;;3.30;2.30;;;5.60;99.90;;;;;;5095858;28;20483;-41
2021/03/23 03:55:42;;;;;;;4.10;2.40;;;5.60;99.90;;;;;;5095092;28;20032;-39
2021/03/23 03:58:08;;;;;;;7.75;2.65;;;5.50;99.90;;;;;;5095878;28;20024;-41
2021/03/23 04:00:35;;;;;;;9.45;2.67;;;5.60;99.90;;;;;;5095682;28;20069;-43
2021/03/23 04:03:03;;;;;;;3.22;2.10;;;5.50;99.90;;;;;;5095932;28;20031;-41
2021/03/23 04:05:35;;;;;;;5.13;2.58;;;5.50;99.90;;;;;;5095438;28;20040;-42
2021/03/23 04:08:03;;;;;;;4.57;2.10;;;5.50;99.90;;;;;;5095837;28;20024;-41
2021/03/23 04:10:29;;;;;;;4.30;2.25;;;5.40;99.90;;;;;;5094519;28;20390;-41
2021/03/23 04:12:54;;;;;;;3.08;2.45;;;5.40;99.90;;;;;;5095704;28;20024;-42
2021/03/23 04:15:27;;;;;;;6.25;2.50;;;5.40;99.90;;;;;;5095462;28;20027;-39
2021/03/23 04:17:53;;;;;;;4.65;2.80;;;5.40;99.90;;;;;;5094754;28;20532;-44
2021/03/23 04:20:20;;;;;;;5.68;2.92;;;5.40;99.90;;;;;;5095079;28;20036;-42
2021/03/23 04:22:46;;;;;;;11.73;4.28;;;5.40;99.90;;;;;;5095488;28;20052;-43
2021/03/23 04:25:13;;;;;;;5.72;3.30;;;5.40;99.90;;;;;;5094329;28;20032;-42
2021/03/23 04:27:39;;;;;;;8.05;3.53;;;5.40;99.90;;;;;;5094292;28;20527;-44
2021/03/23 04:30:07;;;;;;;5.80;3.22;;;5.40;99.90;;;;;;5095279;28;20109;-42
2021/03/23 04:32:33;;;;;;;5.93;3.05;;;5.50;99.90;;;;;;5095174;28;20020;-42
2021/03/23 04:34:59;;;;;;;7.53;3.90;;;5.50;99.90;;;;;;5094919;28;20028;-41
2021/03/23 04:37:24;;;;;;;7.82;3.85;;;5.50;99.90;;;;;;5095187;28;20034;-42
2021/03/23 04:39:50;;;;;;;4.93;3.25;;;5.50;99.90;;;;;;5094178;28;20055;-39
2021/03/23 04:42:16;;;;;;;6.78;3.60;;;5.50;99.90;;;;;;5095086;28;20035;-39
2021/03/23 04:44:41;;;;;;;8.52;3.72;;;5.50;99.90;;;;;;5094841;28;20215;-43
2021/03/23 04:47:07;;;;;;;6.85;4.18;;;5.50;99.90;;;;;;5095135;28;20063;-43
2021/03/23 04:49:33;;;;;;;4.60;3.45;;;5.50;99.90;;;;;;5094633;28;20068;-41
2021/03/23 04:51:58;;;;;;;7.88;4.32;;;5.50;99.90;;;;;;5094836;28;20028;-39
2021/03/23 04:54:24;;;;;;;5.90;3.15;;;5.50;99.90;;;;;;5094811;28;20026;-41
2021/03/23 04:56:50;;;;;;;5.85;2.92;;;5.50;99.90;;;;;;5094055;28;20051;-39
2021/03/23 04:59:15;;;;;;;6.60;3.58;;;5.50;99.90;;;;;;5094655;28;20045;-41
2021/03/23 05:01:41;;;;;;;5.65;3.45;;;5.50;99.90;;;;;;5094660;28;20059;-43
2021/03/23 05:04:12;;;;;;;4.93;3.20;;;5.50;99.90;;;;;;5094602;28;20028;-41
2021/03/23 05:06:38;;;;;;;5.95;3.47;;;5.40;99.90;;;;;;5094328;28;20036;-42
2021/03/23 05:09:04;;;;;;;5.57;3.40;;;5.40;99.90;;;;;;5079101;28;20107;-45
2021/03/23 05:11:31;;;;;;;5.68;3.67;;;5.40;99.90;;;;;;5072731;28;20485;-40
2021/03/23 05:13:57;;;;;;;5.55;3.85;;;5.40;99.90;;;;;;5074001;28;20699;-43
2021/03/23 05:16:23;;;;;;;7.68;3.50;;;5.40;99.90;;;;;;5077628;28;20028;-40
2021/03/23 05:18:49;;;;;;;5.65;3.60;;;5.30;99.90;;;;;;5093807;28;20016;-39
2021/03/23 05:21:15;;;;;;;4.93;3.33;;;5.30;99.90;;;;;;5093734;28;20383;-41
2021/03/23 05:23:40;;;;;;;5.93;2.97;;;5.30;99.90;;;;;;5093662;28;20020;-43
2021/03/23 05:26:07;;;;;;;4.75;3.25;;;5.30;99.90;;;;;;5061868;28;20037;-39
2021/03/23 05:28:33;;;;;;;4.20;2.63;;;5.40;99.90;;;;;;5066849;28;20075;-43
2021/03/23 05:30:59;;;;;;;6.03;2.70;;;5.40;99.90;;;;;;5071719;28;20384;-41
2021/03/23 05:33:25;;;;;;;5.95;3.22;;;5.40;99.90;;;;;;5064693;28;20036;-42
2021/03/23 05:35:53;;;;;;;6.50;3.05;;;5.40;99.90;;;;;;5071729;28;20081;-41
2021/03/23 05:38:20;;;;;;;5.93;3.03;;;5.40;99.90;;;;;;5071416;28;20028;-39
2021/03/23 05:40:49;;;;;;;7.88;3.67;;;5.40;99.90;;;;;;5070371;28;20032;-40
2021/03/23 05:43:57;;;;;;;6.82;3.38;;;5.40;99.90;;;;;;5071072;28;20491;-41
2021/03/23 05:46:30;;;;;;;6.85;3.00;;;5.40;99.90;;;;;;5071142;28;20037;-41
2021/03/23 05:49:08;;;;;;;4.00;2.95;;;5.50;99.90;;;;;;5071446;28;20357;-40
2021/03/23 05:51:48;;;;;;;6.18;3.13;;;5.50;99.90;;;;;;5078310;28;20079;-43
2021/03/23 05:54:50;;;;;;;5.43;2.63;;;5.50;99.90;;;;;;5071136;28;20020;-42
2021/03/23 05:57:32;;;;;;;3.53;2.55;;;5.50;99.90;;;;;;5050286;28;20376;-41
2021/03/23 06:00:05;;;;;;;5.03;2.95;;;5.60;99.90;;;;;;5057626;28;20032;-41
2021/03/23 06:02:44;;;;;;;5.13;2.78;;;5.60;99.90;;;;;;5070491;28;20546;-42
2021/03/23 06:05:12;;;;;;;8.45;3.30;;;5.50;99.90;;;;;;5071301;28;20021;-43
2021/03/23 06:07:38;;;;;;;5.88;3.05;;;5.60;99.90;;;;;;5072387;28;20051;-44
2021/03/23 06:10:16;;;;;;;6.28;3.42;;;5.60;99.90;;;;;;5071654;28;20025;-41
2021/03/23 06:12:52;;;;;;;4.68;2.30;;;5.60;99.90;;;;;;5070758;28;20016;-41
2021/03/23 06:15:58;;;;;;;3.60;2.10;;;5.70;99.90;;;;;;5072866;28;20025;-39
2021/03/23 06:18:55;;;;;;;5.57;2.33;;;5.70;99.90;;;;;;5052876;28;20013;-44
2021/03/23 06:21:41;;;;;;;;;;;5.70;99.90;;;;;;5052880;28;20032;-43
2021/03/23 06:24:16;;;;;;;5.70;1.75;;;5.80;99.90;;;;;;5052696;28;19996;-39
2021/03/23 06:26:52;;;;;;;3.08;2.10;;;5.80;99.90;;;;;;5051643;28;20387;-43
2021/03/23 06:29:42;;;;;;;2.50;1.90;;;5.80;99.90;;;;;;5052800;28;20076;-44
2021/03/23 06:32:37;;;;;;;2.92;2.28;;;5.80;99.90;;;;;;5052732;28;20025;-43
2021/03/23 06:35:07;;;;;;;3.35;1.70;;;5.80;99.90;;;;;;5052717;28;20048;-41
2021/03/23 06:37:39;;;;;;;2.38;1.60;;;5.80;99.90;;;;;;5052253;28;20100;-41
2021/03/23 06:40:21;;;;;;;5.53;2.08;;;5.80;99.90;;;;;;5050994;28;20124;-42
2021/03/23 06:42:52;;;;;;;5.45;1.83;;;5.80;99.90;;;;;;5052423;28;20078;-41
2021/03/23 06:45:37;;;;;;;2.72;2.10;;;5.80;99.90;;;;;;5052434;28;20053;-41
2021/03/23 06:48:26;;;;;;;2.67;1.52;;;5.80;99.90;;;;;;5052636;28;20029;-41
2021/03/23 06:51:13;;;;;;;5.75;2.20;;;5.80;99.90;;;;;;5064205;28;20080;-39
2021/03/23 06:53:41;;;;;;;2.78;2.00;;;5.80;99.90;;;;;;5092138;28;20039;-43
2021/03/23 06:56:22;;;;;;;2.83;1.98;;;5.90;99.90;;;;;;5091715;28;20379;-46
2021/03/23 06:59:08;;;;;;;3.05;1.80;;;5.90;99.90;;;;;;5092316;28;20038;-40
2021/03/23 07:01:39;;;;;;;;;;;6.00;99.90;;;;;;5092957;28;20050;-41
2021/03/23 07:04:36;;;;;;;5.63;2.05;;;6.00;99.90;;;;;;5092589;28;19944;-44
2021/03/23 07:07:13;;;;;;;2.92;1.92;;;6.10;99.90;;;;;;5080074;28;20111;-40
2021/03/23 07:10:14;;;;;;;2.58;1.80;;;6.10;99.90;;;;;;5092080;28;20051;-43
2021/03/23 07:12:44;;;;;;;2.05;1.50;;;6.20;99.90;;;;;;5092192;28;20383;-38
2021/03/23 07:15:32;;;;;;;3.55;1.73;;;6.30;99.90;;;;;;5092532;28;20520;-40
2021/03/23 07:18:19;;;;;;;5.35;1.50;;;6.40;99.90;;;;;;5092583;28;20078;-41
2021/03/23 07:20:48;;;;;;;;;;;6.50;99.90;;;;;;5092637;28;20475;-40
2021/03/23 07:23:20;;;;;;;4.07;1.65;;;6.60;99.90;;;;;;5092387;28;20011;-39
2021/03/23 07:25:46;;;;;;;2.13;1.45;;;6.70;99.90;;;;;;5091011;28;20028;-41
2021/03/23 07:28:34;;;;;;;2.20;1.50;;;6.80;99.90;;;;;;5092382;28;20056;-42
2021/03/23 07:31:38;;;;;;;4.07;1.80;;;6.90;99.90;;;;;;5092249;28;20024;-39
2021/03/23 07:34:23;;;;;;;3.45;1.92;;;7.00;99.90;;;;;;5092104;28;20098;-39
2021/03/23 07:36:52;;;;;;;1.90;1.40;;;7.00;99.90;;;;;;5092225;28;20225;-40
2021/03/23 07:39:34;;;;;;;2.58;2.05;;;7.00;99.90;;;;;;5092112;28;20066;-40
2021/03/23 07:42:18;;;;;;;4.43;2.20;;;7.00;99.90;;;;;;5091159;28;20028;-41
2021/03/23 07:44:53;;;;;;;4.40;2.13;;;7.00;99.90;;;;;;5091722;28;20036;-42
2021/03/23 07:47:34;;;;;;;2.95;1.77;;;7.00;99.90;;;;;;5092220;28;20024;-41
2021/03/23 07:50:12;;;;;;;5.03;1.80;;;7.00;99.90;;;;;;5092026;28;20032;-41
2021/03/23 07:52:49;;;;;;;4.50;2.25;;;6.90;99.90;;;;;;5054160;28;20418;-44
2021/03/23 07:55:26;;;;;;;2.20;2.00;;;6.90;99.90;;;;;;5054473;28;20023;-42
2021/03/23 07:58:12;;;;;;;3.25;2.33;;;7.00;99.90;;;;;;5055355;28;20017;-41
2021/03/23 08:01:06;;;;;;;4.43;2.15;;;7.00;99.90;;;;;;5055457;28;20464;-42
2021/03/23 08:03:50;;;;;;;2.55;1.90;;;7.10;99.90;;;;;;5055242;28;20028;-41
2021/03/23 08:06:23;;;;;;;4.00;1.90;;;7.20;99.90;;;;;;5055475;28;20032;-44
2021/03/23 08:09:27;;;;;;;2.13;1.88;;;7.20;99.90;;;;;;5055302;28;20480;-41
2021/03/23 08:12:17;;;;;;;3.95;1.95;;;7.30;99.90;;;;;;5066790;28;20451;-41
2021/03/23 08:14:51;;;;;;;2.92;1.83;;;7.40;99.90;;;;;;5075121;28;20032;-39
2021/03/23 08:17:39;;;;;;;5.13;2.42;;;7.50;99.90;;;;;;5086964;28;20058;-41
2021/03/23 08:20:07;;;;;;;2.83;1.95;;;7.60;99.90;;;;;;5075124;28;20370;-40
2021/03/23 08:23:02;;;;;;;4.15;2.10;;;7.70;99.90;;;;;;5075095;28;20040;-39
2021/03/23 08:25:40;;;;;;;4.55;2.63;;;7.80;99.90;;;;;;5074091;28;20111;-42
2021/03/23 08:28:39;;;;;;;3.40;2.10;;;7.90;99.90;;;;;;5074944;28;20032;-41
2021/03/23 08:31:24;;;;;;;3.40;1.80;;;7.90;99.90;;;;;;5074908;28;20037;-41
2021/03/23 08:34:20;;;;;;;3.55;1.98;;;8.00;99.90;;;;;;5074965;28;20056;-41
2021/03/23 08:37:37;;;;;;;2.17;1.58;;;8.00;99.90;;;;;;5074595;28;20029;-41
2021/03/23 08:40:21;;;;;;;5.50;1.85;;;8.10;99.90;;;;;;5062589;28;20036;-42
2021/03/23 08:42:47;;;;;;;1.92;1.52;;;8.10;99.90;;;;;;5074487;28;20361;-47
2021/03/23 08:45:25;;;;;;;3.55;1.73;;;8.10;99.90;;;;;;5074445;28;20102;-41
2021/03/23 08:48:25;;;;;;;5.72;1.67;;;8.20;99.90;;;;;;5074537;28;20409;-42
2021/03/23 08:50:57;;;;;;;3.90;2.00;;;8.30;99.90;;;;;;5080019;28;20462;-41
2021/03/23 08:53:32;;;;;;;3.38;2.35;;;8.30;99.90;;;;;;5094637;28;20024;-39
2021/03/23 08:55:59;;;;;;;2.40;1.60;;;8.20;99.60;;;;;;5093542;28;20035;-41
2021/03/23 08:58:48;;;;;;;3.00;1.92;;;8.20;99.60;;;;;;5093391;28;20028;-42
2021/03/23 09:01:26;;;;;;;4.82;1.98;;;8.10;99.30;;;;;;5094750;28;20051;-39
2021/03/23 09:03:54;;;;;;;2.30;1.50;;;8.00;99.20;;;;;;5093894;28;20024;-41
2021/03/23 09:06:24;;;;;;;2.78;1.75;;;8.00;99.30;;;;;;5094627;28;20246;-41
2021/03/23 09:09:14;;;;;;;4.65;2.00;;;8.00;98.90;;;;;;5094356;28;20035;-41
2021/03/23 09:12:04;;;;;;;2.83;1.88;;;8.00;98.80;;;;;;5093116;28;20481;-40
2021/03/23 09:14:33;;;;;;;3.92;2.20;;;7.90;98.50;;;;;;5094149;28;20024;-39
2021/03/23 09:16:58;;;;;;;3.95;2.00;;;7.80;98.80;;;;;;5094188;28;20062;-44
2021/03/23 09:19:46;;;;;;;3.83;1.98;;;7.90;98.70;;;;;;5094277;28;20020;-41
2021/03/23 09:22:21;;;;;;;4.20;1.95;;;7.90;98.30;;;;;;5094229;28;20027;-39
2021/03/23 09:24:47;;;;;;;2.67;1.90;;;7.90;98.40;;;;;;5092955;28;20125;-39
2021/03/23 09:27:24;;;;;;;3.00;2.13;;;7.90;98.30;;;;;;5094057;28;20077;-40
2021/03/23 09:29:51;;;;;;;3.92;2.17;;;8.00;98.20;;;;;;5093757;28;20482;-43
2021/03/23 09:32:22;;;;;;;4.60;2.22;;;8.00;97.90;;;;;;5094135;28;20033;-39
2021/03/23 09:35:07;;;;;;;3.53;2.00;;;8.00;97.50;;;;;;5093752;28;20470;-42
2021/03/23 09:37:50;;;;;;;2.97;1.83;;;8.00;97.30;;;;;;5093899;28;20025;-39
2021/03/23 09:40:19;;;;;;;1.92;1.55;;;8.10;97.40;;;;;;5091673;28;20471;-39
2021/03/23 09:42:52;;;;;;;2.75;1.80;;;8.10;97.30;;;;;;5093636;28;20082;-44
2021/03/23 09:45:27;;;;;;;3.85;2.28;;;8.20;97.20;;;;;;5093623;28;20036;-40
2021/03/23 09:48:01;;;;;;;5.20;2.00;;;8.30;96.80;;;;;;5087980;28;20028;-42
2021/03/23 09:50:41;;;;;;;3.42;2.13;;;8.30;96.80;;;;;;5075683;28;20034;-43
2021/03/23 09:53:12;;;;;;;2.63;1.90;;;8.30;96.50;;;;;;5093499;28;20027;-41
2021/03/23 09:55:39;;;;;;;3.47;2.10;;;8.40;96.30;;;;;;5092637;28;20085;-44
2021/03/23 09:58:04;;;;;;;7.85;2.47;;;8.40;96.30;;;;;;5093065;28;20024;-42
2021/03/23 10:00:36;;;;;;;3.60;2.35;;;8.40;95.90;;;;;;5093360;28;20040;-41
2021/03/23 10:03:20;;;;;;;3.65;2.22;;;8.40;95.80;;;;;;5093283;28;20507;-42
2021/03/23 10:05:59;;;;;;;2.40;1.80;;;8.40;95.70;;;;;;5093235;28;20407;-42
2021/03/23 10:08:31;;;;;;;2.75;2.08;;;8.40;95.70;;;;;;5092044;28;20028;-40
2021/03/23 10:11:07;;;;;;;3.78;2.15;;;8.40;95.60;;;;;;5091997;28;20026;-39
2021/03/23 10:13:33;;;;;;;3.72;1.77;;;8.40;95.50;;;;;;5092266;28;20020;-41
2021/03/23 10:16:04;;;;;;;3.92;2.20;;;8.40;95.30;;;;;;5072169;28;20032;-40
2021/03/23 10:18:34;;;;;;;2.55;1.95;;;8.50;95.30;;;;;;5072822;28;20422;-41
2021/03/23 10:21:08;;;;;;;4.03;2.17;;;8.50;95.20;;;;;;5072563;28;20036;-41
2021/03/23 10:23:42;;;;;;;4.63;1.77;;;8.60;95.10;;;;;;5072886;28;20032;-43
2021/03/23 10:26:07;;;;;;;3.58;1.98;;;8.60;94.90;;;;;;5071696;28;20021;-42
2021/03/23 10:28:39;;;;;;;4.05;1.90;;;8.70;94.60;;;;;;5072631;28;20066;-39
2021/03/23 10:31:08;;;;;;;4.18;2.60;;;8.70;94.50;;;;;;5072471;28;20024;-43
2021/03/23 10:33:37;;;;;;;3.42;2.30;;;8.70;94.40;;;;;;5072455;28;20416;-39
2021/03/23 10:36:09;;;;;;;5.97;2.50;;;8.70;94.10;;;;;;5072571;28;20021;-43
2021/03/23 10:38:44;;;;;;;2.58;1.98;;;8.80;93.70;;;;;;5072673;28;20514;-39
2021/03/23 10:41:16;;;;;;;2.67;1.90;;;8.80;93.70;;;;;;5071445;28;20024;-41
2021/03/23 10:43:42;;;;;;;6.05;2.05;;;8.90;93.40;;;;;;5072432;28;20059;-40
2021/03/23 10:46:32;;;;;;;3.97;2.30;;;9.00;93.20;;;;;;5072288;28;20029;-41
2021/03/23 10:49:12;;;;;;;3.60;2.30;;;9.00;93.00;;;;;;5072299;28;20487;-41
2021/03/23 10:51:41;;;;;;;3.35;1.98;;;9.10;92.70;;;;;;5072380;28;20032;-39
2021/03/23 10:54:10;;;;;;;3.50;1.88;;;9.30;92.60;;;;;;5072149;28;20024;-41
2021/03/23 10:56:47;;;;;;;3.33;2.20;;;9.40;92.20;;;;;;5071261;28;20051;-40
2021/03/23 10:59:29;;;;;;;2.03;1.70;;;9.50;92.00;;;;;;5072187;28;20032;-40
2021/03/23 11:02:16;;;;;;;2.72;1.73;;;9.50;91.60;;;;;;5072319;28;20433;-40
2021/03/23 11:05:13;;;;;;;3.65;1.73;;;9.60;91.60;;;;;;5072421;28;20119;-40
2021/03/23 11:07:54;;;;;;;;;;;9.70;90.60;;;;;;5063620;28;20094;-39
2021/03/23 11:10:22;;;;;;;2.60;1.60;;;9.80;88.70;;;;;;5071161;28;19916;-38
2021/03/23 11:12:48;;;;;;;3.50;1.80;;;9.90;90.60;;;;;;5072204;28;20045;-39
2021/03/23 11:15:15;;;;;;;3.55;2.45;;;10.00;90.60;;;;;;5071837;28;20051;-39
2021/03/23 11:17:47;;;;;;;4.20;2.30;;;10.10;90.10;;;;;;5087168;28;20016;-41
2021/03/23 11:20:26;;;;;;;4.47;2.33;;;10.20;89.10;;;;;;5092159;28;20034;-39
2021/03/23 11:22:53;;;;;;;2.80;1.50;;;10.30;88.20;;;;;;5092321;28;20111;-39
2021/03/23 11:25:21;;;;;;;5.90;2.17;;;10.40;88.30;;;;;;5091765;28;20024;-39
2021/03/23 11:27:49;;;;;;;3.03;1.98;;;10.60;87.50;;;;;;5096242;28;20020;-41
2021/03/23 11:30:15;;;;;;;4.25;2.00;;;10.60;86.80;;;;;;5096003;28;20076;-38
2021/03/23 11:32:41;;;;;;;3.45;2.20;;;10.70;86.40;;;;;;5096432;28;20047;-39
2021/03/23 11:35:08;;;;;;;2.88;1.90;;;10.70;85.80;;;;;;5096166;28;20416;-39
2021/03/23 11:37:33;;;;;;;2.22;2.00;;;10.80;85.60;;;;;;5096293;28;20352;-39
2021/03/23 11:39:59;;;;;;;5.18;2.50;;;10.80;85.60;;;;;;5095092;28;20031;-40
2021/03/23 11:42:47;;;;;;;3.90;2.50;;;10.80;83.40;;;;;;5096022;28;20165;-39
2021/03/23 11:45:26;;;;;;;3.47;2.30;;;10.80;83.80;;;;;;5095693;28;20598;-42
2021/03/23 11:47:59;;;;;;;2.95;2.13;;;10.90;84.60;;;;;;5096053;28;20020;-39
2021/03/23 11:50:29;;;;;;;2.90;1.60;;;10.90;83.80;;;;;;5095761;28;20028;-39
2021/03/23 11:52:55;;;;;;;2.67;1.90;;;11.00;83.20;;;;;;5094708;28;20382;-42
2021/03/23 11:55:26;;;;;;;3.40;2.35;;;11.20;82.90;;;;;;5094845;28;20024;-40
2021/03/23 11:57:54;;;;;;;4.13;1.85;;;11.40;82.20;;;;;;5095954;28;20467;-39
2021/03/23 12:00:21;;;;;;;2.80;1.50;;;11.50;81.50;;;;;;5095535;28;20173;-39
2021/03/23 12:02:48;;;;;;;3.78;1.40;;;11.60;81.10;;;;;;5095813;28;20032;-43
2021/03/23 12:05:15;;;;;;;3.35;1.73;;;11.70;81.00;;;;;;5095590;28;20103;-40
2021/03/23 12:08:22;;;;;;;2.65;1.50;;;11.80;80.40;;;;;;5095582;28;20044;-41
2021/03/23 12:10:55;;;;;;;2.97;1.50;;;11.90;76.50;;;;;;5094698;28;20068;-40
2021/03/23 12:13:39;;;;;;;2.80;1.33;;;11.90;78.90;;;;;;5095516;28;20031;-44
2021/03/23 12:16:16;;;;;;;4.20;1.50;;;12.00;77.50;;;;;;5095197;28;20395;-41
2021/03/23 12:18:52;;;;;;;5.13;1.48;;;12.00;77.10;;;;;;5095530;28;20020;-44
2021/03/23 12:21:20;;;;;;;2.03;1.30;;;12.00;76.90;;;;;;5095168;28;20428;-41
2021/03/23 12:23:45;;;;;;;2.65;1.50;;;12.10;76.90;;;;;;5095292;28;20035;-41
2021/03/23 12:26:11;;;;;;;2.65;1.30;;;12.20;76.70;;;;;;5094161;28;20037;-41
2021/03/23 12:28:37;;;;;;;1.10;1.00;;;12.20;75.90;;;;;;5095400;28;20035;-40
2021/03/23 12:31:02;;;;;;;2.42;1.30;;;12.30;75.80;;;;;;5094829;28;20115;-39
2021/03/23 12:33:28;;;;;;;1.70;1.20;;;12.30;75.20;;;;;;5095143;28;20101;-39
2021/03/23 12:35:53;;;;;;;2.28;1.10;;;12.40;74.80;;;;;;5095133;28;20024;-41
2021/03/23 12:38:19;;;;;;;1.92;1.05;;;12.50;73.90;;;;;;5094260;28;20062;-40
2021/03/23 12:40:44;;;;;;;4.20;1.67;;;12.50;74.70;;;;;;5093985;28;20435;-41
2021/03/23 12:43:20;;;;;;;3.35;1.45;;;12.60;73.90;;;;;;5094527;28;20433;-43
2021/03/23 12:45:46;;;;;;;3.17;1.42;;;12.70;72.90;;;;;;5094877;28;20032;-40
2021/03/23 12:48:12;;;;;;;2.65;1.42;;;12.80;73.20;;;;;;5094632;28;20040;-40
2021/03/23 12:50:38;;;;;;;1.70;1.20;;;12.80;73.40;;;;;;5094714;28;20020;-42
2021/03/23 12:53:07;;;;;;;3.08;1.40;;;12.90;72.90;;;;;;5094634;28;20409;-41
2021/03/23 12:55:33;;;;;;;1.30;1.08;;;12.90;72.90;;;;;;5093654;28;20031;-40
2021/03/23 12:58:01;;;;;;;1.67;1.08;;;12.80;72.30;;;;;;5094744;28;20373;-40
2021/03/23 13:00:32;;;;;;;3.20;1.10;;;12.80;72.90;;;;;;5093444;28;20035;-39
2021/03/23 13:02:58;;;;;;;1.90;1.33;;;12.60;71.90;;;;;;5094622;28;20073;-41
2021/03/23 13:05:24;;;;;;;1.73;1.10;;;12.40;72.40;;;;;;5094489;28;20463;-42
2021/03/23 13:07:52;;;;;;;2.60;1.73;;;12.30;72.40;;;;;;5093373;28;20032;-44
2021/03/23 13:10:18;;;;;;;2.25;1.60;;;12.10;72.70;;;;;;5093230;28;20391;-39
2021/03/23 13:12:43;;;;;;;3.95;1.52;;;12.00;73.30;;;;;;5094469;28;20020;-39
2021/03/23 13:15:11;;;;;;;1.33;0.95;;;11.90;73.30;;;;;;5094344;28;20024;-41
2021/03/23 13:17:37;;;;;;;3.08;1.10;;;11.80;73.10;;;;;;5094146;28;20024;-40
2021/03/23 13:20:03;;;;;;;1.42;1.13;;;11.70;73.20;;;;;;5094204;28;20058;-40
2021/03/23 13:22:33;;;;;;;1.45;1.00;;;11.50;73.60;;;;;;5094033;28;20070;-40